Time;durP1;ratioP1;P1;durP2;ratioP2;P2;SDS_P1;SDS_P2;PMS_P1;PMS_P2;Temp;Humidity;BMP_temperature;BMP_pressure;BME280_temperature;BME280_humidity;BME280_pressure;Samples;Min_cycle;Max_cycle;Signal;HPM_P1;HPM_P2
2023/10/31 00:01:21;;;;;;;7.55;4.07;;;15.80;97.90;;;;;;5026528;28;20044;-52
2023/10/31 00:03:47;;;;;;;8.07;4.13;;;15.70;98.20;;;;;;5012147;28;20036;-52
2023/10/31 00:06:13;;;;;;;9.27;4.50;;;15.70;98.30;;;;;;5012279;28;20018;-52
2023/10/31 00:08:39;;;;;;;10.60;4.57;;;15.70;98.40;;;;;;5026179;28;20042;-52
2023/10/31 00:11:05;;;;;;;7.38;3.95;;;15.70;98.60;;;;;;5026306;28;20030;-52
2023/10/31 00:13:31;;;;;;;7.50;3.95;;;15.70;98.40;;;;;;5012564;28;20117;-52
2023/10/31 00:15:57;;;;;;;7.80;4.43;;;15.70;98.40;;;;;;5012078;28;20057;-52
2023/10/31 00:18:23;;;;;;;9.20;4.40;;;15.70;98.60;;;;;;5026154;28;20042;-52
2023/10/31 00:20:49;;;;;;;7.40;4.63;;;15.80;98.60;;;;;;5012115;28;20113;-52
2023/10/31 00:23:15;;;;;;;8.43;4.55;;;15.90;98.60;;;;;;5011906;28;20189;-52
2023/10/31 00:25:41;;;;;;;9.45;4.72;;;15.80;98.80;;;;;;5012115;28;20030;-52
2023/10/31 00:28:07;;;;;;;6.63;4.03;;;15.90;98.70;;;;;;5011876;28;20026;-52
2023/10/31 00:30:33;;;;;;;8.30;4.88;;;15.80;98.50;;;;;;5011911;28;20057;-52
2023/10/31 00:32:58;;;;;;;5.70;3.90;;;15.80;98.60;;;;;;5011932;28;20061;-51
2023/10/31 00:35:24;;;;;;;6.88;3.63;;;15.90;98.30;;;;;;5011767;28;20025;-52
2023/10/31 00:37:50;;;;;;;6.97;3.78;;;16.00;98.00;;;;;;5011846;28;20037;-52
2023/10/31 00:40:16;;;;;;;6.45;3.92;;;16.00;97.50;;;;;;5026164;28;20046;-51
2023/10/31 00:42:42;;;;;;;7.30;3.67;;;15.80;97.70;;;;;;5011716;28;20089;-52
2023/10/31 00:45:08;;;;;;;8.57;3.13;;;15.70;97.70;;;;;;5012174;28;20053;-52
2023/10/31 00:47:34;;;;;;;6.45;3.75;;;15.70;97.80;;;;;;5026070;28;20041;-52
2023/10/31 00:50:00;;;;;;;6.70;3.97;;;15.70;97.80;;;;;;5011876;28;20025;-52
2023/10/31 00:52:26;;;;;;;7.78;3.10;;;15.70;97.40;;;;;;5011513;28;20436;-52
2023/10/31 00:54:52;;;;;;;10.25;3.67;;;15.80;97.20;;;;;;5011912;28;20022;-52
2023/10/31 00:57:17;;;;;;;4.70;3.30;;;15.80;97.00;;;;;;5011963;28;20521;-52
2023/10/31 00:59:43;;;;;;;7.50;4.10;;;15.80;96.90;;;;;;5014545;28;20058;-52
2023/10/31 01:02:09;;;;;;;6.45;3.08;;;15.80;96.80;;;;;;5013389;28;20038;-52
2023/10/31 01:04:36;;;;;;;6.10;2.70;;;15.90;96.90;;;;;;5015400;28;20393;-52
2023/10/31 01:07:02;;;;;;;8.20;3.25;;;16.00;96.70;;;;;;5015591;28;20037;-52
2023/10/31 01:09:28;;;;;;;6.50;3.08;;;15.90;96.70;;;;;;5015176;28;20073;-52
2023/10/31 01:11:54;;;;;;;5.22;3.22;;;15.90;97.10;;;;;;5015211;28;20363;-52
2023/10/31 01:14:20;;;;;;;4.40;2.40;;;15.90;97.10;;;;;;5015310;28;20097;-52
2023/10/31 01:16:46;;;;;;;8.70;2.55;;;15.80;97.00;;;;;;5015220;28;20041;-52
2023/10/31 01:19:11;;;;;;;4.63;2.25;;;15.90;96.90;;;;;;5015363;28;20025;-52
2023/10/31 01:21:37;;;;;;;5.20;2.60;;;15.90;96.80;;;;;;5014867;28;20089;-52
2023/10/31 01:24:03;;;;;;;4.38;2.30;;;16.00;96.70;;;;;;5015187;28;20041;-51
2023/10/31 01:26:29;;;;;;;3.53;2.47;;;16.00;96.80;;;;;;5029392;28;20037;-52
2023/10/31 01:28:55;;;;;;;4.65;2.38;;;15.90;96.50;;;;;;5015502;28;20030;-52
2023/10/31 01:31:20;;;;;;;6.18;2.58;;;16.10;98.30;;;;;;5015186;28;20559;-52
2023/10/31 01:33:46;;;;;;;7.65;2.58;;;16.00;97.20;;;;;;5011527;28;20504;-51
2023/10/31 01:36:12;;;;;;;3.63;2.20;;;16.10;97.50;;;;;;5012672;28;20386;-51
2023/10/31 01:38:38;;;;;;;4.30;2.65;;;16.10;96.80;;;;;;5014608;28;20030;-52
2023/10/31 01:41:04;;;;;;;7.28;2.80;;;16.10;96.90;;;;;;5015066;28;20033;-51
2023/10/31 01:43:38;;;;;;;7.63;2.60;;;16.00;96.90;;;;;;5014694;28;20030;-52
2023/10/31 01:46:04;;;;;;;5.30;2.50;;;16.20;98.20;;;;;;5012466;28;20556;-51
2023/10/31 01:48:32;;;;;;;4.70;2.58;;;16.10;98.40;;;;;;5014975;28;20109;-52
2023/10/31 01:50:59;;;;;;;3.55;2.17;;;16.10;98.50;;;;;;5014950;28;20112;-52
2023/10/31 01:53:26;;;;;;;5.07;2.70;;;16.10;98.60;;;;;;5014520;28;20034;-52
2023/10/31 01:55:55;;;;;;;5.50;2.30;;;16.20;98.10;;;;;;5014413;28;20045;-52
2023/10/31 01:58:28;;;;;;;3.70;2.15;;;16.20;99.70;;;;;;5014525;28;20037;-51
2023/10/31 02:00:55;;;;;;;4.13;2.58;;;16.10;97.40;;;;;;5014344;28;20025;-51
2023/10/31 02:03:21;;;;;;;6.18;2.53;;;16.10;97.50;;;;;;5017144;28;20034;-52
2023/10/31 02:05:47;;;;;;;5.68;2.67;;;16.20;98.60;;;;;;5032915;28;20034;-52
2023/10/31 02:08:13;;;;;;;3.20;2.03;;;;;;;;;;5048040;28;20059;-51
2023/10/31 02:10:40;;;;;;;4.93;2.53;;;16.10;99.10;;;;;;5033863;28;20025;-52
2023/10/31 02:13:15;;;;;;;6.53;2.42;;;;;;;;;;5033431;28;20076;-52
2023/10/31 02:15:41;;;;;;;4.97;2.28;;;;;;;;;;5010371;28;20060;-52
2023/10/31 02:18:08;;;;;;;5.22;3.13;;;;;;;;;;5047626;28;20041;-52
2023/10/31 02:20:34;;;;;;;6.00;2.63;;;;;;;;;;5033276;28;20021;-53
2023/10/31 02:23:00;;;;;;;5.05;2.55;;;;;;;;;;5047412;28;20081;-51
2023/10/31 02:25:26;;;;;;;4.78;2.42;;;;;;;;;;5033911;28;20029;-52
2023/10/31 02:27:52;;;;;;;4.47;2.80;;;16.30;99.90;;;;;;5033463;28;20452;-52
2023/10/31 02:30:18;;;;;;;4.65;2.15;;;16.30;99.90;;;;;;5033843;28;20156;-52
2023/10/31 02:32:44;;;;;;;3.22;2.30;;;16.40;99.90;;;;;;5031303;28;20049;-52
2023/10/31 02:35:10;;;;;;;4.90;2.22;;;;;;;;;;5048057;28;20479;-52
2023/10/31 02:37:36;;;;;;;5.70;3.63;;;;;;;;;;5033353;28;20025;-51
2023/10/31 02:40:02;;;;;;;4.40;3.03;;;;;;;;;;5033449;28;20483;-52
2023/10/31 02:42:28;;;;;;;4.50;2.17;;;;;;;;;;5033375;28;20017;-52
2023/10/31 02:44:54;;;;;;;5.32;2.13;;;;;;;;;;5033463;28;20396;-52
2023/10/31 02:47:20;;;;;;;7.47;2.28;;;;;;;;;;5033412;28;20057;-52
2023/10/31 02:49:46;;;;;;;5.20;1.85;;;;;;;;;;5033001;28;20033;-52
2023/10/31 02:52:13;;;;;;;5.63;2.15;;;;;;;;;;5033203;28;20036;-52
2023/10/31 02:54:39;;;;;;;6.78;2.42;;;;;;;;;;5033192;28;20026;-52
2023/10/31 02:57:05;;;;;;;4.32;1.88;;;;;;;;;;5031141;28;20045;-52
2023/10/31 02:59:31;;;;;;;3.50;1.80;;;;;;;;;;5030915;28;20038;-51
2023/10/31 03:01:57;;;;;;;3.58;1.80;;;16.60;99.00;;;;;;5032800;28;20036;-52
2023/10/31 03:04:24;;;;;;;3.65;1.58;;;;;;;;;;5030860;28;20088;-51
2023/10/31 03:06:50;;;;;;;4.15;1.80;;;;;;;;;;5033132;28;20113;-51
2023/10/31 03:09:17;;;;;;;5.25;1.85;;;;;;;;;;5033082;28;20037;-52
2023/10/31 03:11:43;;;;;;;2.58;1.50;;;;;;;;;;5032569;28;20033;-52
2023/10/31 03:14:09;;;;;;;6.15;1.95;;;;;;;;;;5030709;28;20037;-52
2023/10/31 03:16:35;;;;;;;5.95;2.28;;;;;;;;;;5033057;28;20097;-51
2023/10/31 03:19:01;;;;;;;4.30;1.73;;;;;;;;;;5030421;28;20033;-52
2023/10/31 03:21:27;;;;;;;3.65;1.92;;;;;;;;;;5032242;28;20032;-52
2023/10/31 03:23:55;;;;;;;4.65;2.22;;;;;;;;;;5032559;28;20036;-52
2023/10/31 03:26:21;;;;;;;3.33;1.98;;;;;;;;;;5033060;28;20041;-51
2023/10/31 03:28:48;;;;;;;3.92;2.03;;;;;;;;;;5032322;28;20025;-52
2023/10/31 03:31:14;;;;;;;4.53;2.03;;;;;;;;;;5032363;28;20044;-52
2023/10/31 03:33:40;;;;;;;3.28;2.13;;;;;;;;;;5032432;28;20477;-52
2023/10/31 03:36:06;;;;;;;5.20;2.67;;;;;;;;;;5032417;28;20477;-52
2023/10/31 03:38:33;;;;;;;3.45;1.88;;;;;;;;;;5032570;28;20036;-51
2023/10/31 03:40:59;;;;;;;4.25;2.08;;;;;;;;;;5032587;28;20033;-52
2023/10/31 03:43:25;;;;;;;5.97;1.95;;;;;;;;;;5046900;28;20132;-51
2023/10/31 03:45:52;;;;;;;2.78;1.98;;;;;;;;;;5032153;28;20029;-52
2023/10/31 03:48:18;;;;;;;4.32;1.90;;;;;;;;;;5032569;28;20424;-52
2023/10/31 03:50:44;;;;;;;5.03;2.08;;;;;;;;;;5032484;28;20026;-52
2023/10/31 03:53:10;;;;;;;3.72;2.05;;;;;;;;;;5032434;28;20033;-51
2023/10/31 03:55:37;;;;;;;6.35;2.13;;;;;;;;;;5031234;28;20507;-51
2023/10/31 03:58:03;;;;;;;5.78;2.20;;;;;;;;;;5031805;28;20527;-51
2023/10/31 04:00:28;;;;;;;2.28;1.70;;;17.30;99.90;;;;;;5032040;28;20527;-51
2023/10/31 04:02:54;;;;;;;2.38;1.45;;;17.40;99.90;;;;;;5032255;28;20125;-51
2023/10/31 04:05:21;;;;;;;4.30;1.60;;;17.40;99.90;;;;;;5032137;28;20022;-52
2023/10/31 04:07:47;;;;;;;2.72;1.85;;;;;;;;;;5032066;28;20044;-52
2023/10/31 04:10:14;;;;;;;3.63;1.55;;;;;;;;;;5032223;28;20064;-52
2023/10/31 04:12:40;;;;;;;3.03;1.42;;;;;;;;;;5032324;28;20033;-52
2023/10/31 04:15:06;;;;;;;5.10;1.95;;;;;;;;;;5032155;28;20077;-52
2023/10/31 04:17:32;;;;;;;4.18;1.90;;;;;;;;;;5032029;28;20037;-52
2023/10/31 04:19:58;;;;;;;3.42;1.70;;;;;;;;;;5031829;28;20036;-52
2023/10/31 04:22:24;;;;;;;3.97;1.85;;;17.50;99.90;;;;;;5031996;28;20132;-51
2023/10/31 04:24:50;;;;;;;3.08;1.98;;;17.50;91.60;;;;;;5031608;28;20488;-53
2023/10/31 04:27:16;;;;;;;2.70;1.95;;;17.50;91.60;;;;;;5031924;28;20041;-52
2023/10/31 04:29:41;;;;;;;2.42;1.65;;;17.60;91.70;;;;;;5046217;28;20536;-52
2023/10/31 04:32:08;;;;;;;3.42;1.80;;;17.70;91.70;;;;;;5031617;28;20045;-52
2023/10/31 04:34:34;;;;;;;4.53;1.95;;;17.70;91.90;;;;;;5034846;28;20037;-51
2023/10/31 04:37:00;;;;;;;4.03;2.03;;;17.60;91.70;;;;;;5035712;28;20030;-52
2023/10/31 04:39:25;;;;;;;3.72;2.08;;;17.60;91.80;;;;;;5035637;28;20032;-52
2023/10/31 04:41:51;;;;;;;3.45;1.70;;;17.50;91.90;;;;;;5035766;28;20056;-52
2023/10/31 04:44:17;;;;;;;3.70;1.95;;;17.50;91.80;;;;;;5035777;28;20029;-52
2023/10/31 04:46:43;;;;;;;5.95;2.22;;;17.50;91.60;;;;;;5033581;28;20029;-52
2023/10/31 04:49:09;;;;;;;4.03;2.25;;;17.50;91.60;;;;;;5035552;28;20064;-52
2023/10/31 04:51:35;;;;;;;3.75;1.98;;;17.50;91.80;;;;;;5035460;28;20121;-53
2023/10/31 04:54:01;;;;;;;3.28;1.50;;;17.40;91.90;;;;;;5035312;28;20033;-52
2023/10/31 04:56:27;;;;;;;7.15;2.72;;;17.50;91.90;;;;;;5050133;28;20030;-52
2023/10/31 04:58:53;;;;;;;3.33;1.80;;;17.40;91.90;;;;;;5035457;28;20029;-52
2023/10/31 05:01:19;;;;;;;3.55;1.98;;;17.50;92.00;;;;;;5035196;28;20335;-52
2023/10/31 05:03:45;;;;;;;3.25;1.83;;;17.50;92.50;;;;;;5034414;28;20053;-53
2023/10/31 05:06:11;;;;;;;3.40;1.77;;;17.30;92.40;;;;;;5035232;28;20071;-52
2023/10/31 05:08:36;;;;;;;7.97;2.42;;;17.40;92.40;;;;;;5049490;28;20037;-53
2023/10/31 05:11:02;;;;;;;11.00;2.42;;;17.40;92.90;;;;;;5035256;28;20030;-52
2023/10/31 05:13:28;;;;;;;4.57;2.33;;;17.50;93.10;;;;;;5035068;28;20048;-52
2023/10/31 05:15:54;;;;;;;2.95;1.73;;;17.60;92.60;;;;;;5032888;28;20436;-52
2023/10/31 05:18:20;;;;;;;5.30;2.17;;;17.50;92.20;;;;;;5032937;28;20128;-52
2023/10/31 05:20:45;;;;;;;5.30;2.25;;;17.50;92.10;;;;;;5049624;28;20097;-52
2023/10/31 05:23:11;;;;;;;3.20;2.05;;;17.40;92.20;;;;;;5034739;28;20061;-52
2023/10/31 05:25:37;;;;;;;4.22;2.00;;;17.50;92.30;;;;;;5034659;28;20021;-52
2023/10/31 05:28:04;;;;;;;3.60;2.05;;;17.50;92.30;;;;;;5049348;28;20041;-52
2023/10/31 05:30:30;;;;;;;6.10;2.95;;;17.50;92.10;;;;;;5031915;28;20042;-52
2023/10/31 05:32:55;;;;;;;4.22;1.98;;;17.50;91.60;;;;;;5034856;28;20041;-51
2023/10/31 05:35:22;;;;;;;5.18;2.00;;;17.60;91.40;;;;;;5034709;28;20029;-52
2023/10/31 05:37:48;;;;;;;5.70;2.10;;;17.70;91.60;;;;;;5034974;28;20233;-52
2023/10/31 05:40:15;;;;;;;4.82;2.30;;;17.60;91.60;;;;;;5034411;28;20034;-52
2023/10/31 05:42:41;;;;;;;5.20;1.90;;;17.60;91.40;;;;;;5033885;28;20048;-52
2023/10/31 05:45:08;;;;;;;2.15;1.48;;;17.70;91.20;;;;;;5034128;28;20026;-52
2023/10/31 05:47:33;;;;;;;2.22;1.38;;;17.70;91.20;;;;;;5034735;28;20456;-52
2023/10/31 05:49:59;;;;;;;4.00;1.95;;;17.70;91.10;;;;;;5048314;28;20037;-52
2023/10/31 05:52:32;;;;;;;4.72;1.90;;;17.70;91.10;;;;;;5034558;28;20041;-52
2023/10/31 05:54:58;;;;;;;3.00;1.70;;;17.80;91.10;;;;;;5034088;28;20033;-52
2023/10/31 05:57:24;;;;;;;2.97;1.55;;;17.80;90.90;;;;;;5032169;28;20038;-52
2023/10/31 05:59:49;;;;;;;4.72;2.00;;;17.80;91.00;;;;;;5034001;28;20037;-52
2023/10/31 06:02:16;;;;;;;5.35;1.63;;;17.80;90.90;;;;;;5033586;28;20819;-51
2023/10/31 06:04:42;;;;;;;4.45;1.88;;;17.80;90.90;;;;;;5033887;28;20037;-52
2023/10/31 06:07:08;;;;;;;4.10;2.08;;;17.90;90.90;;;;;;5032637;28;20029;-52
2023/10/31 06:09:33;;;;;;;5.43;1.75;;;17.90;90.80;;;;;;5033307;28;20022;-52
2023/10/31 06:12:00;;;;;;;4.80;2.13;;;17.90;90.90;;;;;;5033343;28;20026;-52
2023/10/31 06:14:26;;;;;;;7.43;2.53;;;17.90;91.00;;;;;;5033425;28;20034;-52
2023/10/31 06:16:52;;;;;;;4.30;2.22;;;17.90;91.20;;;;;;5047925;28;20036;-52
2023/10/31 06:19:18;;;;;;;3.72;2.17;;;17.80;91.00;;;;;;5033542;28;20448;-52
2023/10/31 06:21:43;;;;;;;5.00;2.40;;;17.90;91.00;;;;;;5033286;28;20041;-52
2023/10/31 06:24:09;;;;;;;4.05;2.10;;;17.90;91.10;;;;;;5032811;28;20029;-52
2023/10/31 06:26:35;;;;;;;3.72;1.80;;;17.90;91.20;;;;;;5033753;28;20037;-55
2023/10/31 06:29:01;;;;;;;3.05;2.05;;;17.80;91.30;;;;;;5048307;28;20075;-55
2023/10/31 06:31:27;;;;;;;4.95;2.17;;;17.80;91.20;;;;;;5033488;28;20030;-57
2023/10/31 06:33:53;;;;;;;3.38;1.70;;;17.80;91.30;;;;;;5033345;28;20384;-56
2023/10/31 06:36:19;;;;;;;4.22;1.80;;;17.80;91.00;;;;;;5033808;28;20026;-55
2023/10/31 06:38:44;;;;;;;4.60;1.95;;;17.90;91.00;;;;;;5033529;28;20032;-56
2023/10/31 06:41:10;;;;;;;3.15;1.70;;;17.90;91.00;;;;;;5033541;28;20428;-55
2023/10/31 06:43:36;;;;;;;4.35;2.30;;;17.90;91.00;;;;;;5033319;28;20488;-55
2023/10/31 06:46:04;;;;;;;3.55;1.98;;;17.90;90.90;;;;;;5033397;28;20032;-55
2023/10/31 06:48:29;;;;;;;4.05;1.67;;;18.00;90.80;;;;;;5033356;28;20044;-55
2023/10/31 06:50:55;;;;;;;7.22;2.92;;;18.00;90.50;;;;;;5033717;28;20025;-55
2023/10/31 06:53:21;;;;;;;3.65;2.05;;;18.10;90.50;;;;;;5033054;28;20041;-55
2023/10/31 06:55:47;;;;;;;4.15;2.22;;;18.20;90.20;;;;;;5032432;28;20053;-56
2023/10/31 06:58:13;;;;;;;5.10;2.38;;;18.20;90.20;;;;;;5033154;28;20025;-55
2023/10/31 07:00:38;;;;;;;4.43;1.80;;;18.20;90.30;;;;;;5033289;28;20025;-56
2023/10/31 07:03:08;;;;;;;7.40;3.47;;;18.20;90.30;;;;;;5033421;28;20033;-55
2023/10/31 07:05:35;;;;;;;6.25;2.95;;;18.30;90.30;;;;;;5030996;28;20041;-56
2023/10/31 07:08:02;;;;;;;5.78;3.40;;;18.30;90.10;;;;;;5033283;28;20068;-56
2023/10/31 07:10:28;;;;;;;13.68;6.88;;;18.40;90.20;;;;;;5033168;28;20038;-55
2023/10/31 07:12:54;;;;;;;6.78;3.15;;;18.40;90.20;;;;;;5033106;28;20052;-55
2023/10/31 07:15:20;;;;;;;6.03;2.88;;;18.50;89.80;;;;;;5033096;28;20025;-56
2023/10/31 07:17:47;;;;;;;8.65;3.72;;;18.60;89.30;;;;;;5032676;28;20116;-55
2023/10/31 07:20:13;;;;;;;8.35;4.78;;;;;;;;;;5032889;28;20033;-56
2023/10/31 07:22:39;;;;;;;6.32;2.50;;;18.80;89.00;;;;;;5032367;28;20049;-56
2023/10/31 07:25:06;;;;;;;6.38;2.70;;;18.90;88.90;;;;;;5032722;28;20366;-55
2023/10/31 07:27:32;;;;;;;6.38;2.28;;;19.00;88.60;;;;;;5032657;28;20025;-55
2023/10/31 07:29:58;;;;;;;4.05;2.45;;;19.10;88.50;;;;;;5032648;28;20044;-55
2023/10/31 07:32:24;;;;;;;4.72;3.00;;;19.10;88.40;;;;;;5032539;28;20120;-55
2023/10/31 07:34:51;;;;;;;5.78;3.08;;;19.20;88.50;;;;;;5031961;28;20443;-56
2023/10/31 07:37:17;;;;;;;6.78;3.05;;;19.30;88.60;;;;;;5031971;28;20060;-57
2023/10/31 07:39:43;;;;;;;9.00;3.58;;;19.30;88.70;;;;;;5031648;28;20033;-55
2023/10/31 07:42:09;;;;;;;6.47;3.63;;;19.40;88.80;;;;;;5031507;28;20033;-55
2023/10/31 07:44:35;;;;;;;7.07;3.72;;;19.50;88.70;;;;;;5032337;28;20033;-55
2023/10/31 07:47:00;;;;;;;11.73;5.15;;;19.60;88.60;;;;;;5031324;28;20104;-55
2023/10/31 07:49:27;;;;;;;8.57;5.10;;;19.80;95.20;;;;;;5031656;28;20067;-56
2023/10/31 07:51:53;;;;;;;8.25;2.85;;;19.70;88.30;;;;;;5031679;28;20064;-55
2023/10/31 07:54:19;;;;;;;5.85;2.90;;;19.70;88.00;;;;;;5031988;28;20037;-55
2023/10/31 07:56:45;;;;;;;6.10;2.50;;;19.60;88.40;;;;;;5032925;28;20033;-55
2023/10/31 07:59:11;;;;;;;5.65;2.75;;;;;;;;;;5031615;28;20052;-55
2023/10/31 08:01:37;;;;;;;5.38;3.17;;;19.80;89.00;;;;;;5031375;28;20025;-56
2023/10/31 08:04:03;;;;;;;5.75;2.70;;;19.90;89.70;;;;;;5031381;28;20026;-56
2023/10/31 08:06:29;;;;;;;5.03;2.90;;;19.90;90.60;;;;;;5031570;28;20060;-56
2023/10/31 08:08:56;;;;;;;40.33;20.63;;;19.90;90.80;;;;;;5031292;28;20106;-56
2023/10/31 08:11:21;;;;;;;12.65;5.50;;;19.90;90.20;;;;;;5031228;28;20101;-56
2023/10/31 08:13:47;;;;;;;13.13;7.95;;;19.90;89.00;;;;;;5031393;28;20104;-56
2023/10/31 08:16:19;;;;;;;23.15;13.35;;;19.90;89.70;;;;;;5031491;28;20060;-56
2023/10/31 08:18:45;;;;;;;13.80;5.43;;;19.90;89.00;;;;;;5028727;28;20025;-56
2023/10/31 08:21:11;;;;;;;9.00;4.60;;;19.90;88.50;;;;;;5031281;28;20045;-55
2023/10/31 08:23:37;;;;;;;4.95;3.17;;;19.90;88.40;;;;;;5030650;28;20065;-56
2023/10/31 08:26:03;;;;;;;6.30;3.80;;;19.90;89.20;;;;;;5028136;28;20030;-56
2023/10/31 08:28:30;;;;;;;6.57;2.63;;;20.00;89.50;;;;;;5031592;28;20091;-56
2023/10/31 08:30:57;;;;;;;6.80;3.63;;;20.10;88.80;;;;;;5031339;28;20175;-56
2023/10/31 08:33:23;;;;;;;10.32;5.72;;;20.10;88.60;;;;;;5028815;28;20536;-55
2023/10/31 08:35:49;;;;;;;8.27;6.15;;;20.10;88.60;;;;;;5031676;28;20034;-56
2023/10/31 08:38:15;;;;;;;7.70;4.55;;;20.20;88.70;;;;;;5031809;28;20079;-55
2023/10/31 08:40:41;;;;;;;6.85;4.68;;;20.30;88.90;;;;;;5031721;28;20029;-56
2023/10/31 08:43:07;;;;;;;12.35;5.10;;;20.30;89.00;;;;;;5031808;28;20026;-55
2023/10/31 08:45:33;;;;;;;9.32;3.97;;;20.40;88.40;;;;;;5030734;28;20025;-56
2023/10/31 08:48:00;;;;;;;8.40;6.07;;;20.40;88.50;;;;;;5030233;28;20021;-55
2023/10/31 08:50:26;;;;;;;12.43;9.15;;;20.40;88.20;;;;;;5031162;28;20542;-55
2023/10/31 08:52:52;;;;;;;6.13;3.55;;;20.40;88.50;;;;;;5031484;28;20069;-55
2023/10/31 08:55:18;;;;;;;10.02;3.60;;;20.40;88.00;;;;;;5031717;28;20022;-57
2023/10/31 08:57:44;;;;;;;9.23;4.35;;;20.40;87.80;;;;;;5031589;28;20104;-56
2023/10/31 09:00:09;;;;;;;7.47;2.35;;;20.40;87.80;;;;;;5031645;28;20516;-56
2023/10/31 09:02:35;;;;;;;5.50;2.55;;;20.40;87.60;;;;;;5028590;28;20389;-57
2023/10/31 09:23:58;;;;;;;11.13;2.75;;;20.30;87.20;;;;;;5262002;22;1333297;-52
2023/10/31 09:26:24;;;;;;;3.63;1.70;;;20.20;87.70;;;;;;5026868;28;20040;-52
2023/10/31 09:28:50;;;;;;;7.07;2.30;;;20.10;87.40;;;;;;5063725;28;20056;-52
2023/10/31 09:31:19;;;;;;;8.27;3.88;;;20.10;87.70;;;;;;5066094;28;20119;-52
2023/10/31 09:33:46;;;;;;;8.65;2.35;;;20.10;88.00;;;;;;5067860;28;20021;-52
2023/10/31 09:36:13;;;;;;;4.25;2.13;;;20.10;88.20;;;;;;5068436;28;20086;-52
2023/10/31 09:38:39;;;;;;;4.85;1.95;;;20.10;88.20;;;;;;5067702;28;20115;-52
2023/10/31 09:41:05;;;;;;;3.92;1.95;;;20.00;88.50;;;;;;5068345;28;20064;-50
2023/10/31 09:43:31;;;;;;;4.53;2.97;;;20.00;88.70;;;;;;5078013;28;20563;-51
2023/10/31 09:45:58;;;;;;;4.55;2.67;;;20.00;88.90;;;;;;5076964;28;20040;-51
2023/10/31 09:48:24;;;;;;;5.82;3.08;;;20.00;88.70;;;;;;5077801;28;20032;-50
2023/10/31 09:50:50;;;;;;;8.38;2.90;;;20.00;89.00;;;;;;5042906;28;20078;-50
2023/10/31 09:53:16;;;;;;;5.70;2.10;;;20.00;89.80;;;;;;5076718;28;20029;-53
2023/10/31 09:55:43;;;;;;;6.13;2.78;;;20.10;89.10;;;;;;5077847;28;20062;-51
2023/10/31 09:58:09;;;;;;;4.72;2.25;;;20.10;89.50;;;;;;5078622;28;20475;-51
2023/10/31 10:00:36;;;;;;;3.55;2.08;;;20.10;89.20;;;;;;5076302;28;20019;-52
2023/10/31 10:03:09;;;;;;;5.35;2.25;;;20.10;89.30;;;;;;5077799;28;20032;-51
2023/10/31 10:05:36;;;;;;;3.78;1.45;;;20.20;89.80;;;;;;5078395;28;20036;-52
2023/10/31 10:08:03;;;;;;;7.35;2.10;;;20.20;89.50;;;;;;5077101;28;20021;-51
2023/10/31 10:10:29;;;;;;;5.40;2.30;;;20.20;89.90;;;;;;4991927;28;20032;-51
2023/10/31 10:12:56;;;;;;;5.15;1.63;;;20.30;90.00;;;;;;5078214;28;20032;-52
2023/10/31 10:15:21;;;;;;;3.40;2.35;;;20.30;89.40;;;;;;5076777;28;20024;-52
2023/10/31 10:17:53;;;;;;;4.80;2.28;;;20.30;89.50;;;;;;5059825;28;20388;-51
2023/10/31 10:20:19;;;;;;;4.75;2.35;;;20.40;89.70;;;;;;5053745;28;21491;-51
2023/10/31 10:22:46;;;;;;;4.93;2.45;;;20.40;89.70;;;;;;5022738;28;20074;-52
2023/10/31 10:25:17;;;;;;;4.97;2.30;;;20.50;89.70;;;;;;5062304;28;20049;-52
2023/10/31 10:27:43;;;;;;;9.60;3.40;;;20.50;89.30;;;;;;5061543;28;20036;-51
2023/10/31 10:30:10;;;;;;;10.43;3.08;;;20.60;89.90;;;;;;5063075;28;20020;-52
2023/10/31 10:32:36;;;;;;;6.30;3.13;;;20.70;90.00;;;;;;5012480;28;20506;-52
2023/10/31 10:35:02;;;;;;;10.40;3.45;;;20.80;90.00;;;;;;5062705;28;20107;-52
2023/10/31 10:37:30;;;;;;;4.70;2.28;;;20.80;89.80;;;;;;5062934;28;20134;-51
2023/10/31 10:39:57;;;;;;;4.43;2.10;;;21.00;89.30;;;;;;5064584;28;20028;-52
2023/10/31 10:42:35;;;;;;;5.88;2.40;;;21.00;89.20;;;;;;5062888;28;20114;-51
2023/10/31 10:45:05;;;;;;;7.32;3.28;;;21.10;89.00;;;;;;5028388;28;20128;-51
2023/10/31 10:47:36;;;;;;;7.75;3.17;;;21.20;89.20;;;;;;4997968;28;20120;-52
2023/10/31 10:50:02;;;;;;;17.73;3.05;;;;;;;;;;5028573;28;20169;-51
2023/10/31 10:52:54;;;;;;;2.70;1.63;;;21.70;95.40;;;;;;5030675;28;20523;-51
2023/10/31 10:55:24;;;;;;;5.05;1.98;;;21.70;95.60;;;;;;5027943;28;20064;-51
2023/10/31 10:58:04;;;;;;;6.35;3.08;;;21.90;99.10;;;;;;5030650;28;20037;-51
2023/10/31 11:00:30;;;;;;;7.30;3.50;;;;;;;;;;5029284;28;20124;-52
2023/10/31 11:02:57;;;;;;;6.72;2.40;;;22.10;88.00;;;;;;5031360;28;20025;-52
2023/10/31 11:05:26;;;;;;;4.43;2.63;;;22.20;88.50;;;;;;5030857;28;20456;-51
2023/10/31 11:07:52;;;;;;;12.48;4.93;;;22.30;88.40;;;;;;5029762;28;20074;-51
2023/10/31 11:10:18;;;;;;;8.05;4.10;;;22.50;88.50;;;;;;5030060;28;20038;-51
2023/10/31 11:12:44;;;;;;;6.53;3.05;;;22.60;88.70;;;;;;4996855;28;20519;-52
2023/10/31 11:15:15;;;;;;;7.20;3.40;;;22.80;87.80;;;;;;5031318;28;20044;-52
2023/10/31 11:17:46;;;;;;;3.95;1.88;;;22.90;87.80;;;;;;5033386;28;20028;-51
2023/10/31 11:20:16;;;;;;;9.10;3.10;;;;;;;;;;5033249;28;20108;-52
2023/10/31 11:22:44;;;;;;;6.72;2.85;;;23.30;99.90;;;;;;5033313;28;20029;-52
2023/10/31 11:25:15;;;;;;;10.55;3.67;;;23.20;87.40;;;;;;5032884;28;20057;-51
2023/10/31 11:27:41;;;;;;;10.90;2.55;;;;;;;;;;5032374;28;20026;-52
2023/10/31 11:30:29;;;;;;;8.40;2.95;;;23.60;91.50;;;;;;5033422;28;20033;-51
2023/10/31 11:32:57;;;;;;;8.80;3.67;;;23.50;87.50;;;;;;5033521;28;20116;-52
2023/10/31 11:35:25;;;;;;;9.00;4.05;;;23.60;92.10;;;;;;5032651;28;20043;-52
2023/10/31 11:38:10;;;;;;;5.72;2.17;;;23.50;90.10;;;;;;5041078;28;20068;-51
2023/10/31 11:41:00;;;;;;;10.27;3.38;;;23.40;93.30;;;;;;5052753;28;20028;-51
2023/10/31 11:43:35;;;;;;;9.20;3.30;;;;;;;;;;5039022;28;20128;-51
2023/10/31 11:46:01;;;;;;;9.32;2.75;;;;;;;;;;5052778;28;20036;-51
2023/10/31 11:49:07;;;;;;;9.60;4.22;;;;;;;;;;5001190;28;20055;-52
2023/10/31 11:51:32;;;;;;;9.23;2.95;;;;;;;;;;5051793;28;20062;-52
2023/10/31 11:54:00;;;;;;;7.70;3.30;;;;;;;;;;5001514;28;20033;-52
2023/10/31 11:56:26;;;;;;;5.45;2.92;;;23.40;99.90;;;;;;5052965;28;20029;-51
2023/10/31 11:59:00;;;;;;;4.88;2.90;;;23.60;87.70;;;;;;5052655;28;20028;-51
2023/10/31 12:01:26;;;;;;;11.60;3.97;;;;;;;;;;5052740;28;20388;-51
2023/10/31 12:03:52;;;;;;;7.30;2.85;;;23.90;87.70;;;;;;5052472;28;20055;-51
2023/10/31 12:06:20;;;;;;;8.70;3.30;;;23.70;87.20;;;;;;5052732;28;20464;-51
2023/10/31 12:08:47;;;;;;;8.40;3.25;;;23.50;87.30;;;;;;5052445;28;20063;-51
2023/10/31 12:11:13;;;;;;;8.40;4.80;;;23.40;87.70;;;;;;5034645;28;20555;-51
2023/10/31 12:13:41;;;;;;;9.18;4.25;;;23.20;88.40;;;;;;5052137;28;20423;-51
2023/10/31 12:16:10;;;;;;;13.68;4.60;;;23.20;88.60;;;;;;5052375;28;20059;-51
2023/10/31 12:18:38;;;;;;;7.07;4.07;;;23.10;89.00;;;;;;5052740;28;20456;-52
2023/10/31 12:21:37;;;;;;;11.48;4.95;;;23.00;88.70;;;;;;5052139;28;20025;-52
2023/10/31 12:24:08;;;;;;;9.55;5.55;;;22.90;89.50;;;;;;4990189;28;20054;-51
2023/10/31 12:26:54;;;;;;;10.95;4.57;;;;;;;;;;4932463;29;20429;-51
2023/10/31 12:29:21;;;;;;;8.18;3.33;;;;;;;;;;4932350;29;20498;-52
2023/10/31 12:31:54;;;;;;;7.43;3.67;;;;;;;;;;4932514;29;20035;-51
2023/10/31 12:34:22;;;;;;;8.13;4.40;;;22.80;99.90;;;;;;4932399;29;20468;-51
2023/10/31 12:36:50;;;;;;;7.90;3.90;;;22.80;90.10;;;;;;4932533;29;20042;-51
2023/10/31 12:39:20;;;;;;;6.82;3.00;;;22.70;90.00;;;;;;4931742;29;20039;-51
2023/10/31 12:41:47;;;;;;;14.90;4.63;;;22.70;90.10;;;;;;4932174;29;20035;-51
2023/10/31 12:44:17;;;;;;;9.20;4.90;;;22.70;90.70;;;;;;4932244;29;20067;-51
2023/10/31 12:46:43;;;;;;;12.10;4.07;;;22.70;90.50;;;;;;4932143;29;20495;-51
2023/10/31 12:49:15;;;;;;;9.10;3.72;;;22.70;90.50;;;;;;4932413;29;20044;-52
2023/10/31 12:52:03;;;;;;;11.10;4.43;;;22.60;90.60;;;;;;4932217;29;20040;-51
2023/10/31 12:54:37;;;;;;;9.30;4.65;;;22.60;90.80;;;;;;4932168;29;20055;-51
2023/10/31 12:57:09;;;;;;;11.80;3.53;;;22.50;90.80;;;;;;4940580;28;20039;-51
2023/10/31 12:59:40;;;;;;;8.20;2.90;;;22.50;91.00;;;;;;4989906;28;20173;-52
2023/10/31 13:02:06;;;;;;;7.30;3.83;;;22.50;91.10;;;;;;5041970;28;20048;-51
2023/10/31 13:04:33;;;;;;;15.32;4.78;;;22.40;91.20;;;;;;5051294;28;20037;-52
2023/10/31 13:06:59;;;;;;;15.00;4.68;;;22.50;91.50;;;;;;5051730;28;20035;-52
2023/10/31 13:09:32;;;;;;;8.48;3.53;;;22.50;91.70;;;;;;5051770;28;20716;-52
2023/10/31 13:12:08;;;;;;;12.75;4.28;;;22.50;91.70;;;;;;5051536;28;20029;-52
2023/10/31 13:14:34;;;;;;;10.18;4.50;;;22.50;91.90;;;;;;5051578;28;20108;-50
2023/10/31 13:17:01;;;;;;;11.23;4.45;;;22.40;92.00;;;;;;5000197;28;20565;-50
2023/10/31 13:19:27;;;;;;;9.02;3.80;;;22.50;92.20;;;;;;5051241;28;20064;-49
2023/10/31 13:21:53;;;;;;;12.88;3.47;;;22.50;92.20;;;;;;4998459;28;20075;-50
2023/10/31 13:24:19;;;;;;;8.93;3.63;;;22.50;92.40;;;;;;4994395;28;20049;-50